»·PEaware :: SKY424 KPRC-KHII

SKY424 :: KPRC-KHII

FLIGHT INFORMATION

Flight Status: Arrived
Operator:
Sky High Charters
More flights by this operator :: More flights under this callsign
Pilot: Ben H. (9170)
Aircraft: CESSNA 310
(C310)
More flights by this aircraft type
Origin: KPRC Love
United States
Destination: KHII Lake Havasu City
United States
More flights between these airports :: More routes between these airports
Route: +WNSKI1 MUMTE V12 EED
File this flight plan on PilotEdge
Remarks: SKYHIGH SCENARIO 8
Altitude:
(Current/Filed)
10,000ft
Speed:
(Current/Filed)
160kts
Departed: 17-Feb-19 05:02 PM
Arrived: 17-Feb-19 05:56 PM
Distance/Time
Traveled:
96nm/0:54
Distance/Time
To Go:
Arrived

Flight Plot

Page will automatically refresh every two minutes.

Flight plan parsing failed; only flown route is shown


Map Options




Map Legend


Flown Route
Filed Route
Departure Airport
Arrival Airport
Navaid (VOR, NDB)
Fix

Horizontal Profiles

Position Reports

Time Latitude Longitude Heading Altitude Ground
Speed
17-Feb-19 16:45 34.653858 -112.422589 130 4991ft 0kts
17-Feb-19 16:46 34.653858 -112.422589 130 4991ft 0kts
17-Feb-19 16:47 34.653858 -112.422589 130 4991ft 0kts
17-Feb-19 16:48 34.653858 -112.422589 130 4991ft 0kts
17-Feb-19 16:49 34.653858 -112.422589 130 4991ft 0kts
17-Feb-19 16:50 34.653858 -112.422589 130 4991ft 0kts
17-Feb-19 16:51 34.653858 -112.422589 130 4991ft 0kts
17-Feb-19 16:52 34.653858 -112.422589 130 4991ft 0kts
17-Feb-19 16:53 34.653809 -112.422509 122 4990ft 3kts
17-Feb-19 16:54 34.655163 -112.420718 60 4985ft 11kts
17-Feb-19 16:55 34.657042 -112.418229 41 4974ft 12kts
17-Feb-19 16:56 34.660027 -112.415053 40 4962ft 14kts
17-Feb-19 16:57 34.662647 -112.412076 132 4943ft 0kts
17-Feb-19 16:58 34.662647 -112.412076 132 4943ft 0kts
17-Feb-19 16:59 34.662647 -112.412076 132 4943ft 0kts
17-Feb-19 17:00 34.662023 -112.411521 219 4947ft 4kts
17-Feb-19 17:01 34.649384 -112.424557 222 5574ft 103kts
17-Feb-19 17:02 34.632270 -112.408550 106 7231ft 119kts
17-Feb-19 17:03 34.621269 -112.368087 133 8664ft 127kts
17-Feb-19 17:04 34.598518 -112.331039 134 9810ft 152kts
17-Feb-19 17:05 34.569285 -112.285961 134 9957ft 184kts
17-Feb-19 17:06 34.531148 -112.266324 229 9968ft 174kts
17-Feb-19 17:07 34.501251 -112.313907 231 9953ft 178kts
17-Feb-19 17:09 34.476887 -112.366347 243 9953ft 180kts
17-Feb-19 17:10 34.463501 -112.425215 256 9951ft 182kts
17-Feb-19 17:11 34.459447 -112.487006 262 9952ft 184kts
17-Feb-19 17:12 34.464058 -112.548887 281 9953ft 189kts
17-Feb-19 17:13 34.481634 -112.609141 286 9952ft 191kts
17-Feb-19 17:14 34.506807 -112.665481 309 9954ft 198kts
17-Feb-19 17:15 34.548108 -112.710427 322 9957ft 202kts
17-Feb-19 17:16 34.595476 -112.747465 327 9956ft 204kts
17-Feb-19 17:17 34.648673 -112.773349 344 9953ft 209kts
17-Feb-19 17:18 34.703301 -112.791069 297 9956ft 194kts
17-Feb-19 17:19 34.727287 -112.848457 288 9947ft 192kts
17-Feb-19 17:20 34.721518 -112.909454 269 9957ft 185kts
17-Feb-19 17:21 34.726679 -112.972041 271 9955ft 185kts
17-Feb-19 17:22 34.727579 -113.034077 265 9954ft 183kts
17-Feb-19 17:23 34.726884 -113.096404 266 9965ft 184kts
17-Feb-19 17:24 34.728284 -113.159171 267 9979ft 185kts
17-Feb-19 17:25 34.730283 -113.221851 267 9994ft 186kts
17-Feb-19 17:26 34.732403 -113.285002 267 10008ft 187kts
17-Feb-19 17:27 34.734534 -113.348702 267 10009ft 187kts
17-Feb-19 17:27 34.736284 -113.401521 267 10009ft 187kts
17-Feb-19 17:29 34.738704 -113.475671 267 10009ft 187kts
17-Feb-19 17:30 34.740739 -113.539115 267 10008ft 187kts
17-Feb-19 17:31 34.742744 -113.602684 267 10008ft 187kts
17-Feb-19 17:31 34.744356 -113.654552 267 10009ft 187kts
17-Feb-19 17:32 34.746289 -113.717643 267 10010ft 188kts
17-Feb-19 17:34 34.748510 -113.791700 267 10014ft 187kts
17-Feb-19 17:34 34.749848 -113.844312 267 10022ft 186kts
17-Feb-19 17:35 34.751598 -113.907289 268 10031ft 185kts
17-Feb-19 17:36 34.753362 -113.969758 268 10040ft 183kts
17-Feb-19 17:37 34.755088 -114.031721 269 10046ft 183kts
17-Feb-19 17:38 34.757943 -114.091949 277 9478ft 175kts
17-Feb-19 17:39 34.758328 -114.150118 267 8776ft 171kts
17-Feb-19 17:40 34.759398 -114.207691 272 8090ft 170kts
17-Feb-19 17:41 34.761086 -114.265513 273 7406ft 170kts
17-Feb-19 17:42 34.762639 -114.323469 272 7058ft 175kts
17-Feb-19 17:43 34.764179 -114.383556 272 7059ft 178kts
17-Feb-19 17:44 34.765635 -114.443889 271 7061ft 178kts
17-Feb-19 17:45 34.777607 -114.498037 338 6873ft 180kts
17-Feb-19 17:46 34.826010 -114.510212 345 6267ft 175kts
17-Feb-19 17:47 34.841358 -114.472493 151 5571ft 176kts
17-Feb-19 17:48 34.797437 -114.478781 191 5057ft 152kts
17-Feb-19 17:49 34.756776 -114.471404 165 5057ft 146kts
17-Feb-19 17:50 34.719180 -114.452245 160 4703ft 145kts
17-Feb-19 17:51 34.686420 -114.425366 135 3997ft 141kts
17-Feb-19 17:52 34.651172 -114.403790 163 3316ft 141kts
17-Feb-19 17:53 34.616551 -114.388301 163 2203ft 130kts
17-Feb-19 17:54 34.590269 -114.371719 150 1030ft 87kts
17-Feb-19 17:55 34.577287 -114.363317 236 735ft 9kts
17-Feb-19 17:56 34.577287 -114.364416 65 735ft 0kts
17-Feb-19 17:57 34.577287 -114.364416 65 735ft 0kts
17-Feb-19 17:58 34.577287 -114.364416 65 735ft 0kts
17-Feb-19 17:59 34.577287 -114.364416 65 735ft 0kts
17-Feb-19 18:00 34.577287 -114.364416 65 735ft 0kts
17-Feb-19 18:01 34.577287 -114.364416 65 735ft 0kts
17-Feb-19 18:02 34.577287 -114.364416 65 735ft 0kts
17-Feb-19 18:03 34.577287 -114.364416 65 735ft 0kts
17-Feb-19 18:04 34.577287 -114.364416 65 735ft 0kts

Navigation Log

Ident Type
Flight plan parsing failed, navigation log unavailable